createdAt,value
2022-12-25T00:00:57.812Z,4.15
2022-12-25T00:04:17.707Z,4.23
2022-12-25T00:07:25.067Z,4.37
2022-12-25T00:10:45.014Z,3.78
2022-12-25T00:13:53.171Z,3.30
2022-12-25T00:17:13.543Z,5.05
2022-12-25T00:20:29.958Z,4.00
2022-12-25T00:23:44.330Z,3.93
2022-12-25T00:26:59.822Z,3.83
2022-12-25T00:30:22.515Z,4.32
2022-12-25T00:33:35.147Z,3.70
2022-12-25T00:36:41.864Z,4.20
2022-12-25T00:39:52.460Z,5.50
2022-12-25T00:42:59.231Z,5.32
2022-12-25T00:46:05.015Z,5.28
2022-12-25T00:49:18.526Z,4.22
2022-12-25T00:52:41.785Z,5.17
2022-12-25T00:56:01.675Z,5.17
2022-12-25T00:59:23.568Z,4.82
2022-12-25T01:02:45.673Z,5.38
2022-12-25T01:06:00.823Z,4.88
2022-12-25T01:09:50.523Z,6.30
2022-12-25T01:12:54.015Z,6.33
2022-12-25T01:16:16.460Z,5.80
2022-12-25T01:19:37.564Z,6.53
2022-12-25T01:22:59.567Z,6.93
2022-12-25T01:26:24.707Z,6.10
2022-12-25T01:29:27.814Z,6.97
2022-12-25T01:32:30.886Z,7.43
2022-12-25T01:35:41.354Z,7.10
2022-12-25T01:38:45.263Z,6.57
2022-12-25T01:41:49.427Z,6.63
2022-12-25T01:45:36.019Z,6.50
2022-12-25T01:48:51.801Z,6.40
2022-12-25T01:52:23.884Z,6.20
2022-12-25T01:55:48.448Z,6.35
2022-12-25T01:59:15.215Z,6.07
2022-12-25T02:02:38.241Z,6.00
2022-12-25T02:05:54.665Z,6.20
2022-12-25T02:09:10.412Z,6.07
2022-12-25T02:12:46.062Z,6.30
2022-12-25T02:16:14.403Z,6.17
2022-12-25T02:19:53.943Z,6.30
2022-12-25T02:23:28.610Z,5.85
2022-12-25T02:26:55.908Z,6.30
2022-12-25T02:30:10.387Z,5.43
2022-12-25T02:33:45.886Z,5.60
2022-12-25T02:36:55.736Z,5.73
2022-12-25T02:40:07.932Z,5.90
2022-12-25T02:43:37.231Z,5.95
2022-12-25T02:47:04.295Z,5.13
2022-12-25T02:50:35.056Z,5.77
2022-12-25T02:54:06.267Z,5.57
2022-12-25T02:57:50.318Z,5.50
2022-12-25T03:01:38.810Z,6.05
2022-12-25T03:05:18.346Z,5.05
2022-12-25T03:08:34.961Z,5.00
2022-12-25T03:11:48.666Z,5.47
2022-12-25T03:15:23.232Z,6.00
2022-12-25T03:18:34.297Z,5.00
2022-12-25T03:22:10.178Z,5.63
2022-12-25T03:25:37.683Z,4.83
2022-12-25T03:28:40.586Z,5.57
2022-12-25T03:32:03.336Z,5.22
2022-12-25T03:35:29.374Z,5.65
2022-12-25T03:39:09.524Z,5.93
2022-12-25T03:42:40.622Z,5.13
2022-12-25T03:46:09.213Z,5.67
2022-12-25T03:49:55.910Z,5.50
2022-12-25T03:53:30.360Z,5.30
2022-12-25T03:56:54.191Z,5.10
2022-12-25T04:00:21.411Z,5.00
2022-12-25T04:03:47.128Z,6.00
2022-12-25T04:07:12.756Z,5.40
2022-12-25T04:10:35.017Z,5.57
2022-12-25T04:14:15.315Z,5.45
2022-12-25T04:17:47.114Z,5.60
2022-12-25T04:21:12.234Z,5.37
2022-12-25T04:24:37.456Z,5.07
2022-12-25T04:28:02.611Z,5.13
2022-12-25T04:31:31.971Z,5.38
2022-12-25T04:34:54.118Z,5.80
2022-12-25T04:37:57.770Z,4.77
2022-12-25T04:41:05.355Z,5.40
2022-12-25T04:44:18.408Z,5.50
2022-12-25T04:47:25.572Z,5.43
2022-12-25T04:50:29.339Z,5.93
2022-12-25T04:53:52.027Z,6.20
2022-12-25T04:57:13.763Z,5.75
2022-12-25T05:00:35.749Z,5.88
2022-12-25T05:03:44.843Z,5.40
2022-12-25T05:07:01.022Z,6.00
2022-12-25T05:10:37.000Z,6.30
2022-12-25T05:14:05.020Z,6.10
2022-12-25T05:17:29.784Z,5.80
2022-12-25T05:20:51.967Z,7.28
2022-12-25T05:24:01.860Z,6.83
2022-12-25T05:27:11.616Z,7.10
2022-12-25T05:30:21.528Z,7.97
2022-12-25T05:33:31.458Z,8.38
2022-12-25T05:36:47.185Z,7.28
2022-12-25T05:40:16.889Z,7.07
2022-12-25T05:43:39.506Z,7.40
2022-12-25T05:46:56.352Z,7.05
2022-12-25T05:50:12.032Z,7.03
2022-12-25T05:53:40.933Z,7.43
2022-12-25T05:57:07.488Z,7.47
2022-12-25T06:00:23.965Z,7.40
2022-12-25T06:03:43.844Z,7.88
2022-12-25T06:07:00.114Z,8.00
2022-12-25T06:10:28.106Z,6.85
2022-12-25T06:14:04.362Z,7.50
2022-12-25T06:17:24.389Z,7.70
2022-12-25T06:20:44.491Z,7.05
2022-12-25T06:23:53.318Z,7.13
2022-12-25T06:27:08.935Z,6.85
2022-12-25T06:30:37.769Z,7.43
2022-12-25T06:34:12.940Z,6.97
2022-12-25T06:37:22.407Z,7.00
2022-12-25T06:40:44.817Z,6.63
2022-12-25T06:43:54.422Z,8.10
2022-12-25T06:47:04.242Z,7.47
2022-12-25T06:50:11.240Z,7.87
2022-12-25T06:53:18.248Z,8.50
2022-12-25T06:56:24.994Z,8.98
2022-12-25T06:59:31.834Z,9.65
2022-12-25T07:02:54.697Z,9.27
2022-12-25T07:06:04.409Z,8.87
2022-12-25T07:09:20.691Z,8.88
2022-12-25T07:12:50.838Z,8.50
2022-12-25T07:16:18.789Z,10.30
2022-12-25T07:19:44.608Z,11.77
2022-12-25T07:23:01.751Z,11.50
2022-12-25T07:26:18.474Z,11.07
2022-12-25T07:29:22.572Z,10.25
2022-12-25T07:32:25.471Z,10.38
2022-12-25T07:35:32.201Z,11.50
2022-12-25T07:41:43.851Z,11.15
2022-12-25T07:45:03.754Z,11.70
2022-12-25T07:48:24.652Z,11.10
2022-12-25T07:51:38.807Z,10.93
2022-12-25T07:55:06.681Z,10.27
2022-12-25T07:58:33.626Z,10.88
2022-12-25T08:01:56.783Z,10.30
2022-12-25T08:05:13.713Z,10.80
2022-12-25T08:08:34.588Z,10.93
2022-12-25T08:11:55.629Z,11.20
2022-12-25T08:15:18.580Z,11.25
2022-12-25T08:18:48.590Z,12.40
2022-12-25T08:22:08.521Z,11.65
2022-12-25T08:25:28.577Z,11.80
2022-12-25T08:28:32.487Z,12.27
2022-12-25T08:31:46.477Z,11.23
2022-12-25T08:34:50.982Z,12.48
2022-12-25T08:38:00.040Z,13.10
2022-12-25T08:41:12.964Z,12.63
2022-12-25T08:44:22.757Z,15.03
2022-12-25T08:47:29.067Z,14.48
2022-12-25T08:50:41.619Z,15.32
2022-12-25T08:53:59.422Z,16.60
2022-12-25T08:57:23.500Z,18.67
2022-12-25T09:00:43.391Z,16.70
2022-12-25T09:03:50.700Z,16.40
2022-12-25T09:06:54.642Z,17.65
2022-12-25T09:10:04.095Z,17.60
2022-12-25T09:13:27.416Z,18.03
2022-12-25T09:16:57.469Z,17.97
2022-12-25T09:20:17.339Z,18.15
2022-12-25T09:23:37.532Z,18.13
2022-12-25T09:26:53.914Z,18.42
2022-12-25T09:30:16.327Z,18.13
2022-12-25T09:33:50.387Z,18.70
2022-12-25T09:37:15.156Z,35.47
2022-12-25T09:40:40.100Z,16.25
2022-12-25T09:44:00.393Z,11.75
2022-12-25T09:47:25.197Z,11.17
2022-12-25T09:50:56.336Z,10.10
2022-12-25T09:54:26.474Z,9.30
2022-12-25T09:57:33.654Z,9.27
2022-12-25T10:00:58.191Z,9.00
2022-12-25T10:04:40.948Z,8.67
2022-12-25T10:08:03.735Z,7.50
2022-12-25T10:11:25.060Z,8.95
2022-12-25T10:14:58.700Z,7.57
2022-12-25T10:18:30.971Z,6.82
2022-12-25T10:21:48.265Z,6.60
2022-12-25T10:25:13.509Z,6.90
2022-12-25T10:28:45.887Z,7.00
2022-12-25T10:32:06.778Z,6.68
2022-12-25T10:35:31.854Z,7.55
2022-12-25T10:38:52.880Z,7.67
2022-12-25T10:42:41.149Z,7.77
2022-12-25T10:45:49.930Z,8.82
2022-12-25T10:49:00.563Z,9.20
2022-12-25T10:52:22.065Z,10.10
2022-12-25T10:55:39.117Z,8.80
2022-12-25T10:59:06.057Z,9.80
2022-12-25T11:02:34.995Z,9.82
2022-12-25T11:05:38.254Z,10.15
2022-12-25T11:09:02.160Z,9.90
2022-12-25T11:12:27.166Z,9.97
2022-12-25T11:16:03.851Z,9.70
2022-12-25T11:19:30.985Z,10.77
2022-12-25T11:22:48.093Z,9.93
2022-12-25T11:26:07.877Z,9.40
2022-12-25T11:29:36.806Z,9.37
2022-12-25T11:32:55.648Z,8.57
2022-12-25T11:36:14.856Z,8.25
2022-12-25T11:39:38.109Z,6.95
2022-12-25T11:43:07.671Z,7.18
2022-12-25T11:46:31.868Z,7.40
2022-12-25T11:49:58.605Z,7.97
2022-12-25T11:53:19.019Z,7.57
2022-12-25T11:56:29.271Z,7.63
2022-12-25T11:59:57.238Z,8.15
2022-12-25T12:03:21.367Z,7.93
2022-12-25T12:06:51.372Z,7.77
2022-12-25T12:10:06.628Z,7.60
2022-12-25T12:13:44.255Z,8.23
2022-12-25T12:16:52.517Z,7.40
2022-12-25T12:20:38.351Z,7.30
2022-12-25T12:24:18.232Z,8.13
2022-12-25T12:27:40.382Z,6.93
2022-12-25T12:31:29.989Z,6.28
2022-12-25T12:35:05.843Z,5.05
2022-12-25T12:38:34.021Z,4.07
2022-12-25T12:41:53.950Z,2.90
2022-12-25T12:45:18.892Z,2.40
2022-12-25T12:48:40.970Z,2.28
2022-12-25T12:52:06.025Z,1.83
2022-12-25T12:55:29.047Z,1.87
2022-12-25T12:58:53.851Z,2.77
2022-12-25T13:02:31.109Z,3.67
2022-12-25T13:06:00.294Z,3.90
2022-12-25T13:09:34.686Z,3.75
2022-12-25T13:12:38.534Z,3.77
2022-12-25T13:15:47.876Z,3.40
2022-12-25T13:19:05.223Z,3.35
2022-12-25T13:22:39.040Z,3.78
2022-12-25T13:25:53.392Z,4.05
2022-12-25T13:29:01.984Z,3.77
2022-12-25T13:32:27.869Z,3.90
2022-12-25T13:35:46.879Z,4.20
2022-12-25T13:39:02.898Z,3.60
2022-12-25T13:42:15.604Z,4.15
2022-12-25T13:45:23.942Z,4.20
2022-12-25T13:48:37.557Z,4.57
2022-12-25T13:51:48.445Z,4.53
2022-12-25T13:55:12.679Z,4.88
2022-12-25T13:58:42.466Z,4.60
2022-12-25T14:01:47.519Z,4.63
2022-12-25T14:04:56.927Z,4.37
2022-12-25T14:08:17.311Z,4.90
2022-12-25T14:11:25.455Z,4.63
2022-12-25T14:14:44.181Z,5.80
2022-12-25T14:17:48.510Z,5.70
2022-12-25T14:21:16.806Z,6.47
2022-12-25T14:24:26.998Z,6.55
2022-12-25T14:27:33.115Z,7.35
2022-12-25T14:30:47.499Z,7.03
2022-12-25T14:34:07.652Z,6.80
2022-12-25T14:37:32.571Z,7.27
2022-12-25T14:40:48.675Z,6.93
2022-12-25T14:44:14.746Z,7.10
2022-12-25T14:47:28.749Z,7.35
2022-12-25T14:50:56.513Z,7.47
2022-12-25T14:54:22.793Z,7.97
2022-12-25T14:57:38.600Z,7.68
2022-12-25T15:01:01.782Z,7.18
2022-12-25T15:04:25.694Z,7.78
2022-12-25T15:07:47.645Z,8.43
2022-12-25T15:11:11.548Z,8.60
2022-12-25T15:14:26.618Z,8.57
2022-12-25T15:17:50.496Z,8.70
2022-12-25T15:21:14.490Z,9.32
2022-12-25T15:24:24.531Z,9.77
2022-12-25T15:27:42.063Z,11.17
2022-12-25T15:31:10.538Z,12.02
2022-12-25T15:34:21.598Z,12.25
2022-12-25T15:37:25.551Z,12.38
2022-12-25T15:40:28.634Z,12.40
2022-12-25T15:43:41.381Z,11.77
2022-12-25T15:46:46.132Z,12.38
2022-12-25T15:49:52.943Z,11.48
2022-12-25T15:53:05.874Z,11.82
2022-12-25T15:56:11.685Z,11.93
2022-12-25T15:59:20.987Z,12.63
2022-12-25T16:02:42.207Z,11.95
2022-12-25T16:06:05.364Z,12.38
2022-12-25T16:09:33.226Z,12.43
2022-12-25T16:12:48.304Z,12.00
2022-12-25T16:16:04.449Z,12.07
2022-12-25T16:19:34.324Z,10.90
2022-12-25T16:22:55.168Z,11.18
2022-12-25T16:26:18.292Z,10.73
2022-12-25T16:29:42.284Z,10.90
2022-12-25T16:33:04.355Z,11.13
2022-12-25T16:36:27.188Z,11.40
2022-12-25T16:39:43.408Z,10.48
2022-12-25T16:43:03.292Z,10.80
2022-12-25T16:46:33.237Z,11.17
2022-12-25T16:49:49.284Z,10.53
2022-12-25T16:53:12.579Z,10.75
2022-12-25T16:56:35.300Z,10.52
2022-12-25T17:00:02.259Z,10.75
2022-12-25T17:03:26.466Z,11.03
2022-12-25T17:06:46.337Z,10.63
2022-12-25T17:10:04.218Z,10.82
2022-12-25T17:13:34.204Z,11.48
2022-12-25T17:16:55.256Z,11.45
2022-12-25T17:20:12.374Z,11.70
2022-12-25T17:23:35.191Z,10.17
2022-12-25T17:26:49.262Z,11.07
2022-12-25T17:29:54.214Z,10.10
2022-12-25T17:32:58.322Z,11.15
2022-12-25T17:36:12.049Z,13.30
2022-12-25T17:39:35.095Z,12.07
2022-12-25T17:42:56.136Z,10.90
2022-12-25T17:46:13.398Z,9.73
2022-12-25T17:49:42.118Z,9.57
2022-12-25T17:52:57.029Z,10.37
2022-12-25T17:56:01.014Z,10.33
2022-12-25T17:59:30.024Z,10.00
2022-12-25T18:02:43.905Z,10.93
2022-12-25T18:05:54.535Z,10.32
2022-12-25T18:09:00.586Z,9.97
2022-12-25T18:12:04.450Z,10.40
2022-12-25T18:15:08.932Z,10.50
2022-12-25T18:18:29.751Z,10.25
2022-12-25T18:21:39.901Z,10.35
2022-12-25T18:24:56.142Z,11.20
2022-12-25T18:28:25.049Z,10.40
2022-12-25T18:31:58.995Z,11.40
2022-12-25T18:35:21.981Z,11.07
2022-12-25T18:38:43.947Z,11.23
2022-12-25T18:42:19.989Z,11.10
2022-12-25T18:45:31.037Z,11.40
2022-12-25T18:48:51.805Z,11.15
2022-12-25T18:52:47.536Z,11.68
2022-12-25T18:55:41.000Z,11.45
2022-12-25T18:58:57.931Z,11.33
2022-12-25T19:02:22.074Z,11.53
2022-12-25T19:05:45.078Z,11.85
2022-12-25T19:09:09.845Z,12.82
2022-12-25T19:12:27.901Z,12.30
2022-12-25T19:15:53.924Z,12.50
2022-12-25T19:19:15.863Z,12.00
2022-12-25T19:22:39.036Z,13.13
2022-12-25T19:25:56.060Z,12.45
2022-12-25T19:29:13.963Z,11.60
2022-12-25T19:32:37.114Z,11.57
2022-12-25T19:36:01.922Z,11.70
2022-12-25T19:39:25.104Z,11.60
2022-12-25T19:42:48.825Z,11.65
2022-12-25T19:46:09.996Z,11.98
2022-12-25T19:49:29.918Z,15.10
2022-12-25T19:52:49.850Z,14.67
2022-12-25T19:56:12.943Z,15.63
2022-12-25T19:59:16.341Z,14.60
2022-12-25T20:02:20.321Z,12.70
2022-12-25T20:05:40.577Z,10.47
2022-12-25T20:09:04.508Z,10.00
2022-12-25T20:12:20.951Z,10.45
2022-12-25T20:15:40.746Z,10.60
2022-12-25T20:19:07.779Z,11.10
2022-12-25T20:22:29.601Z,10.30
2022-12-25T20:25:52.601Z,12.50
2022-12-25T20:29:14.592Z,12.40
2022-12-25T20:32:36.565Z,12.25
2022-12-25T20:35:45.980Z,12.05
2022-12-25T20:38:49.669Z,12.60
2022-12-25T20:41:53.392Z,12.30
2022-12-25T20:44:56.141Z,12.13
2022-12-25T20:48:00.432Z,12.07
2022-12-25T20:51:21.863Z,11.50
2022-12-25T20:54:35.485Z,11.70
2022-12-25T20:57:53.535Z,11.93
2022-12-25T21:01:19.643Z,12.15
2022-12-25T21:04:40.615Z,12.73
2022-12-25T21:08:02.622Z,12.52
2022-12-25T21:11:24.656Z,12.47
2022-12-25T21:14:47.598Z,12.13
2022-12-25T21:18:11.461Z,12.35
2022-12-25T21:21:33.543Z,12.23
2022-12-25T21:24:56.628Z,11.80
2022-12-25T21:27:59.969Z,11.87
2022-12-25T21:31:08.347Z,12.10
2022-12-25T21:34:15.582Z,12.52
2022-12-25T21:37:32.116Z,12.68
2022-12-25T21:40:54.516Z,11.73
2022-12-25T21:44:20.087Z,12.47
2022-12-25T21:48:01.881Z,12.77
2022-12-25T21:51:36.833Z,13.32
2022-12-25T21:54:40.730Z,12.20
2022-12-25T21:57:48.487Z,13.15
2022-12-25T22:01:09.680Z,12.57
2022-12-25T22:04:28.699Z,13.47
2022-12-25T22:07:49.956Z,13.30
2022-12-25T22:11:37.074Z,13.00
2022-12-25T22:14:54.883Z,12.95
2022-12-25T22:18:22.141Z,13.03
2022-12-25T22:21:26.543Z,13.00
2022-12-25T22:24:29.352Z,12.98
2022-12-25T22:27:33.989Z,13.63
2022-12-25T22:30:42.168Z,12.50
2022-12-25T22:33:55.922Z,13.00
2022-12-25T22:37:08.595Z,13.43
2022-12-25T22:40:17.584Z,13.18
2022-12-25T22:43:43.308Z,12.52
2022-12-25T22:46:48.773Z,12.68
2022-12-25T22:50:06.171Z,12.63
2022-12-25T22:53:28.170Z,12.27
2022-12-25T22:56:44.616Z,11.40
2022-12-25T22:59:54.106Z,12.27
2022-12-25T23:03:04.903Z,11.75
2022-12-25T23:06:14.725Z,11.70
2022-12-25T23:09:31.557Z,11.93
2022-12-25T23:12:57.892Z,11.73
2022-12-25T23:16:13.565Z,11.63
2022-12-25T23:19:39.506Z,11.48
2022-12-25T23:23:14.730Z,11.60
2022-12-25T23:26:23.864Z,11.10
2022-12-25T23:29:46.298Z,10.75
2022-12-25T23:32:49.941Z,11.43
2022-12-25T23:35:54.631Z,11.68
2022-12-25T23:39:01.737Z,11.47
2022-12-25T23:42:22.511Z,11.17
2022-12-25T23:45:25.452Z,11.55
2022-12-25T23:48:29.539Z,11.10
2022-12-25T23:51:43.873Z,11.25
2022-12-25T23:54:59.296Z,11.30
2022-12-25T23:58:15.295Z,11.10
